createdAt,value
2023-03-15T00:02:32.399Z,7.25
2023-03-15T00:05:35.519Z,7.17
2023-03-15T00:08:38.432Z,7.09
2023-03-15T00:11:40.909Z,7.01
2023-03-15T00:14:43.432Z,6.97
2023-03-15T00:17:46.493Z,6.89
2023-03-15T00:20:49.107Z,6.85
2023-03-15T00:23:51.804Z,6.74
2023-03-15T00:26:54.371Z,6.63
2023-03-15T00:29:56.897Z,6.50
2023-03-15T00:32:59.688Z,6.45
2023-03-15T00:36:09.768Z,6.45
2023-03-15T00:39:12.298Z,6.39
2023-03-15T00:42:15.868Z,6.29
2023-03-15T00:45:21.914Z,6.21
2023-03-15T00:48:24.654Z,6.06
2023-03-15T00:51:27.458Z,5.90
2023-03-15T00:54:30.056Z,5.85
2023-03-15T00:57:35.589Z,5.72
2023-03-15T01:00:38.433Z,5.67
2023-03-15T01:03:45.342Z,5.63
2023-03-15T01:06:47.825Z,5.52
2023-03-15T01:09:51.334Z,5.21
2023-03-15T01:12:53.935Z,5.02
2023-03-15T01:15:56.515Z,4.89
2023-03-15T01:19:02.617Z,4.80
2023-03-15T01:22:05.250Z,4.69
2023-03-15T01:25:09.520Z,4.61
2023-03-15T01:28:12.113Z,4.54
2023-03-15T01:31:28.886Z,4.54
2023-03-15T01:34:31.619Z,4.61
2023-03-15T01:37:34.820Z,4.54
2023-03-15T01:40:45.372Z,4.51
2023-03-15T01:43:49.733Z,4.47
2023-03-15T01:46:53.293Z,4.40
2023-03-15T01:50:05.496Z,4.38
2023-03-15T01:53:10.046Z,4.32
2023-03-15T01:56:13.933Z,4.41
2023-03-15T01:59:22.763Z,4.33
2023-03-15T02:02:27.990Z,4.31
2023-03-15T02:05:36.372Z,4.28
2023-03-15T02:08:43.174Z,4.19
2023-03-15T02:11:45.909Z,4.13
2023-03-15T02:14:54.722Z,4.14
2023-03-15T02:18:00.249Z,4.01
2023-03-15T02:21:20.593Z,3.88
2023-03-15T02:24:32.223Z,3.84
2023-03-15T02:27:35.388Z,3.83
2023-03-15T02:30:38.617Z,3.78
2023-03-15T02:33:46.848Z,3.90
2023-03-15T02:36:50.226Z,3.76
2023-03-15T02:39:52.727Z,3.73
2023-03-15T02:42:59.484Z,3.79
2023-03-15T02:46:02.915Z,3.63
2023-03-15T02:49:08.441Z,3.65
2023-03-15T02:52:12.375Z,3.67
2023-03-15T02:55:15.422Z,3.62
2023-03-15T02:58:18.394Z,3.63
2023-03-15T03:01:21.362Z,3.64
2023-03-15T03:04:24.052Z,3.51
2023-03-15T03:07:26.864Z,3.47
2023-03-15T03:10:35.510Z,3.51
2023-03-15T03:13:38.127Z,3.51
2023-03-15T03:16:43.013Z,3.50
2023-03-15T03:19:45.600Z,3.50
2023-03-15T03:22:48.361Z,3.44
2023-03-15T03:25:57.141Z,3.58
2023-03-15T03:28:59.801Z,3.51
2023-03-15T03:32:05.238Z,3.51
2023-03-15T03:35:09.346Z,3.49
2023-03-15T03:38:12.186Z,3.46
2023-03-15T03:41:18.304Z,3.46
2023-03-15T03:44:20.924Z,3.36
2023-03-15T03:47:25.526Z,3.33
2023-03-15T03:50:28.675Z,3.31
2023-03-15T03:53:31.183Z,3.36
2023-03-15T03:56:34.177Z,3.38
2023-03-15T03:59:36.845Z,3.36
2023-03-15T04:02:44.553Z,3.35
2023-03-15T04:05:49.849Z,3.36
2023-03-15T04:08:55.653Z,3.50
2023-03-15T04:12:06.511Z,3.37
2023-03-15T04:15:11.920Z,3.43
2023-03-15T04:18:15.131Z,3.36
2023-03-15T04:21:23.248Z,3.38
2023-03-15T04:24:30.226Z,3.34
2023-03-15T04:27:38.911Z,3.26
2023-03-15T04:31:10.786Z,3.17
2023-03-15T04:34:45.560Z,3.20
2023-03-15T04:37:58.897Z,3.22
2023-03-15T04:41:30.642Z,3.18
2023-03-15T04:44:41.131Z,3.15
2023-03-15T04:48:03.629Z,3.10
2023-03-15T04:51:28.061Z,3.10
2023-03-15T04:54:49.605Z,3.03
2023-03-15T04:58:12.395Z,2.94
2023-03-15T05:01:14.925Z,2.98
2023-03-15T05:04:36.525Z,2.96
2023-03-15T05:07:53.956Z,2.97
2023-03-15T05:11:07.903Z,2.96
2023-03-15T05:14:34.137Z,2.97
2023-03-15T05:17:46.640Z,3.04
2023-03-15T05:21:15.568Z,3.04
2023-03-15T05:24:27.939Z,3.07
2023-03-15T05:27:57.748Z,2.95
2023-03-15T05:31:16.405Z,2.92
2023-03-15T05:34:43.440Z,2.87
2023-03-15T05:38:04.668Z,2.79
2023-03-15T05:41:46.017Z,2.83
2023-03-15T05:45:06.935Z,2.77
2023-03-15T05:48:32.945Z,2.77
2023-03-15T05:52:04.716Z,2.87
2023-03-15T05:55:15.331Z,2.90
2023-03-15T05:58:41.402Z,2.78
2023-03-15T06:02:16.651Z,2.80
2023-03-15T06:05:41.363Z,2.73
2023-03-15T06:08:50.903Z,2.84
2023-03-15T06:11:54.277Z,2.95
2023-03-15T06:14:57.911Z,2.80
2023-03-15T06:18:01.227Z,2.91
2023-03-15T06:21:04.900Z,2.96
2023-03-15T06:24:08.530Z,2.83
2023-03-15T06:27:11.552Z,2.95
2023-03-15T06:30:16.954Z,3.00
2023-03-15T06:33:21.851Z,3.08
2023-03-15T06:36:25.550Z,3.06
2023-03-15T06:39:28.667Z,3.16
2023-03-15T06:42:31.589Z,3.09
2023-03-15T06:45:34.575Z,3.09
2023-03-15T06:48:39.656Z,3.12
2023-03-15T06:51:45.678Z,3.09
2023-03-15T06:54:48.537Z,3.07
2023-03-15T06:57:51.266Z,2.99
2023-03-15T07:00:54.151Z,3.05
2023-03-15T07:03:56.866Z,3.00
2023-03-15T07:06:59.481Z,2.91
2023-03-15T07:10:04.826Z,2.95
2023-03-15T07:13:07.623Z,2.98
2023-03-15T07:16:10.422Z,3.04
2023-03-15T07:19:13.064Z,3.01
2023-03-15T07:22:15.691Z,2.93
2023-03-15T07:25:24.232Z,3.03
2023-03-15T07:28:27.771Z,2.97
2023-03-15T07:31:30.836Z,2.87
2023-03-15T07:34:33.643Z,2.98
2023-03-15T07:37:36.290Z,3.02
2023-03-15T07:40:39.131Z,3.14
2023-03-15T07:43:42.142Z,3.11
2023-03-15T07:46:51.273Z,3.02
2023-03-15T07:49:54.216Z,2.94
2023-03-15T07:52:56.985Z,2.92
2023-03-15T07:56:01.094Z,2.90
2023-03-15T07:59:04.102Z,3.01
2023-03-15T08:02:07.197Z,3.17
2023-03-15T08:05:10.589Z,3.13
2023-03-15T08:08:13.620Z,3.35
2023-03-15T08:11:16.255Z,3.52
2023-03-15T08:14:22.103Z,3.14
2023-03-15T08:17:24.890Z,3.19
2023-03-15T08:20:29.736Z,3.43
2023-03-15T08:23:32.959Z,3.40
2023-03-15T08:26:35.881Z,3.40
2023-03-15T08:29:38.739Z,3.51
2023-03-15T08:32:43.058Z,3.48
2023-03-15T08:35:46.254Z,3.49
2023-03-15T08:38:48.804Z,3.64
2023-03-15T08:41:52.465Z,3.57
2023-03-15T08:44:59.662Z,3.59
2023-03-15T08:48:02.284Z,3.55
2023-03-15T08:51:06.911Z,3.60
2023-03-15T08:54:09.847Z,3.52
2023-03-15T08:57:13.021Z,3.76
2023-03-15T09:00:23.454Z,3.88
2023-03-15T09:03:26.205Z,3.82
2023-03-15T09:06:29.307Z,3.95
2023-03-15T09:09:32.004Z,3.97
2023-03-15T09:12:34.758Z,4.10
2023-03-15T09:15:37.489Z,4.37
2023-03-15T09:18:41.719Z,4.29
2023-03-15T09:21:45.525Z,4.13
2023-03-15T09:24:50.329Z,4.31
2023-03-15T09:27:53.945Z,4.36
2023-03-15T09:30:58.808Z,4.26
2023-03-15T09:34:02.128Z,4.51
2023-03-15T09:37:05.729Z,4.72
2023-03-15T09:40:21.587Z,5.02
2023-03-15T09:43:50.627Z,5.35
2023-03-15T09:47:16.977Z,5.00
2023-03-15T09:50:23.690Z,5.01
2023-03-15T09:54:21.458Z,4.85
2023-03-15T09:57:30.547Z,4.70
2023-03-15T10:00:41.020Z,4.83
2023-03-15T10:03:53.828Z,4.59
2023-03-15T10:06:58.841Z,4.31
2023-03-15T10:10:01.811Z,4.32
2023-03-15T10:13:23.226Z,4.29
2023-03-15T10:16:47.237Z,4.09
2023-03-15T10:19:52.178Z,4.30
2023-03-15T10:23:07.148Z,4.12
2023-03-15T10:26:14.137Z,4.17
2023-03-15T10:29:18.337Z,4.17
2023-03-15T10:32:25.750Z,4.19
2023-03-15T10:35:28.549Z,4.17
2023-03-15T10:38:31.471Z,4.18
2023-03-15T10:41:42.267Z,4.19
2023-03-15T10:44:44.883Z,4.24
2023-03-15T10:47:57.672Z,4.32
2023-03-15T10:51:39.871Z,4.45
2023-03-15T10:54:43.043Z,4.68
2023-03-15T10:57:57.759Z,4.58
2023-03-15T11:01:07.763Z,4.89
2023-03-15T11:04:14.338Z,4.64
2023-03-15T11:07:16.997Z,4.72
2023-03-15T11:10:25.867Z,4.70
2023-03-15T11:13:30.443Z,4.67
2023-03-15T11:16:38.145Z,4.81
2023-03-15T11:19:43.263Z,5.01
2023-03-15T11:22:45.826Z,5.10
2023-03-15T11:25:48.642Z,5.32
2023-03-15T11:28:59.325Z,5.10
2023-03-15T11:32:11.359Z,5.08
2023-03-15T11:35:18.621Z,5.29
2023-03-15T11:38:28.408Z,5.07
2023-03-15T11:41:44.353Z,4.99
2023-03-15T11:44:49.748Z,5.35
2023-03-15T11:48:05.072Z,5.33
2023-03-15T11:51:08.356Z,5.51
2023-03-15T11:54:16.066Z,5.86
2023-03-15T11:57:40.959Z,5.75
2023-03-15T12:00:47.210Z,5.34
2023-03-15T12:03:50.159Z,5.74
2023-03-15T12:06:56.997Z,5.55
2023-03-15T12:10:06.063Z,5.74
2023-03-15T12:13:28.985Z,6.49
2023-03-15T12:16:39.665Z,6.75
2023-03-15T12:19:42.705Z,6.91
2023-03-15T12:22:53.320Z,6.66
2023-03-15T12:26:02.637Z,6.37
2023-03-15T12:29:26.803Z,6.50
2023-03-15T12:32:30.755Z,6.26
2023-03-15T12:35:40.241Z,5.86
2023-03-15T12:38:55.640Z,5.97
2023-03-15T12:41:59.014Z,5.85
2023-03-15T12:45:19.470Z,5.87
2023-03-15T12:48:23.088Z,6.52
2023-03-15T12:51:46.067Z,6.20
2023-03-15T12:55:04.362Z,6.22
2023-03-15T12:58:12.490Z,6.61
2023-03-15T13:01:16.722Z,6.82
2023-03-15T13:04:19.539Z,6.99
2023-03-15T13:07:42.631Z,6.41
2023-03-15T13:11:20.310Z,6.50
2023-03-15T13:14:41.980Z,6.61
2023-03-15T13:17:54.332Z,6.11
2023-03-15T13:21:16.702Z,6.25
2023-03-15T13:24:25.393Z,6.27
2023-03-15T13:28:13.130Z,6.67
2023-03-15T13:31:24.892Z,6.57
2023-03-15T13:34:31.172Z,6.41
2023-03-15T13:37:34.110Z,6.13
2023-03-15T13:40:46.363Z,6.09
2023-03-15T13:43:51.569Z,6.04
2023-03-15T13:46:54.970Z,6.15
2023-03-15T13:49:57.752Z,6.14
2023-03-15T13:53:00.477Z,5.93
2023-03-15T13:56:08.016Z,6.04
2023-03-15T13:59:12.512Z,5.89
2023-03-15T14:02:18.855Z,5.80
2023-03-15T14:05:27.784Z,5.80
2023-03-15T14:08:30.772Z,5.86
2023-03-15T14:11:40.925Z,5.80
2023-03-15T14:14:51.035Z,5.72
2023-03-15T14:18:07.454Z,5.96
2023-03-15T14:21:19.041Z,5.56
2023-03-15T14:24:39.356Z,5.66
2023-03-15T14:27:42.376Z,5.70
2023-03-15T14:30:53.114Z,5.77
2023-03-15T14:34:01.195Z,5.93
2023-03-15T14:37:10.523Z,6.13
2023-03-15T14:40:21.454Z,6.11
2023-03-15T14:43:24.037Z,5.90
2023-03-15T14:46:27.087Z,5.86
2023-03-15T14:49:30.019Z,5.81
2023-03-15T14:52:33.357Z,5.99
2023-03-15T14:55:37.536Z,5.71
2023-03-15T14:58:41.588Z,5.39
2023-03-15T15:01:52.204Z,5.39
2023-03-15T15:04:55.069Z,5.55
2023-03-15T15:08:15.336Z,5.44
2023-03-15T15:11:18.046Z,5.25
2023-03-15T15:14:22.377Z,5.35
2023-03-15T15:17:25.166Z,5.43
2023-03-15T15:20:27.817Z,5.36
2023-03-15T15:23:32.811Z,5.62
2023-03-15T15:26:36.558Z,5.43
2023-03-15T15:29:39.226Z,5.40
2023-03-15T15:32:44.936Z,5.59
2023-03-15T15:35:47.692Z,5.57
2023-03-15T15:38:50.850Z,5.52
2023-03-15T15:41:54.126Z,5.51
2023-03-15T15:44:56.927Z,5.36
2023-03-15T15:48:06.041Z,5.30
2023-03-15T15:51:35.859Z,5.23
2023-03-15T15:54:38.878Z,5.12
2023-03-15T15:57:42.023Z,5.08
2023-03-15T16:00:44.757Z,4.88
2023-03-15T16:03:47.761Z,4.86
2023-03-15T16:06:59.279Z,4.81
2023-03-15T16:10:02.313Z,4.80
2023-03-15T16:13:05.461Z,4.84
2023-03-15T16:16:13.548Z,4.83
2023-03-15T16:19:16.352Z,4.81
2023-03-15T16:22:21.692Z,4.68
2023-03-15T16:25:28.853Z,4.72
2023-03-15T16:28:31.416Z,4.77
2023-03-15T16:31:35.015Z,4.74
2023-03-15T16:34:38.037Z,4.57
2023-03-15T16:37:41.899Z,4.60
2023-03-15T16:40:46.082Z,4.51
2023-03-15T16:43:49.559Z,4.52
2023-03-15T16:46:52.843Z,4.50
2023-03-15T16:49:55.638Z,4.40
2023-03-15T16:53:00.324Z,4.42
2023-03-15T16:56:05.272Z,4.40
2023-03-15T16:59:12.732Z,4.42
2023-03-15T17:02:24.327Z,4.32
2023-03-15T17:05:27.169Z,4.45
2023-03-15T17:08:30.306Z,4.31
2023-03-15T17:11:33.146Z,4.32
2023-03-15T17:14:35.982Z,4.25
2023-03-15T17:17:38.920Z,4.22
2023-03-15T17:20:41.765Z,4.11
2023-03-15T17:23:46.467Z,4.09
2023-03-15T17:26:49.190Z,4.07
2023-03-15T17:29:52.381Z,4.06
2023-03-15T17:32:55.522Z,3.94
2023-03-15T17:35:59.109Z,3.90
2023-03-15T17:39:03.329Z,3.85
2023-03-15T17:42:06.416Z,3.83
2023-03-15T17:45:21.331Z,3.79
2023-03-15T17:48:24.292Z,3.63
2023-03-15T17:51:36.979Z,3.62
2023-03-15T17:54:39.940Z,3.60
2023-03-15T17:57:45.854Z,3.47
2023-03-15T18:00:55.481Z,3.49
2023-03-15T18:03:58.657Z,3.47
2023-03-15T18:07:01.771Z,3.39
2023-03-15T18:10:07.223Z,3.30
2023-03-15T18:13:15.142Z,3.26
2023-03-15T18:16:19.225Z,3.22
2023-03-15T18:19:22.075Z,3.15
2023-03-15T18:22:24.891Z,3.10
2023-03-15T18:25:30.195Z,3.04
2023-03-15T18:28:33.252Z,2.97
2023-03-15T18:31:36.819Z,2.95
2023-03-15T18:34:39.768Z,2.91
2023-03-15T18:37:42.508Z,2.84
2023-03-15T18:40:45.592Z,2.77
2023-03-15T18:43:52.336Z,2.67
2023-03-15T18:46:55.441Z,2.65
2023-03-15T18:50:09.704Z,2.63
2023-03-15T18:53:13.241Z,2.46
2023-03-15T18:56:20.537Z,2.49
2023-03-15T18:59:25.749Z,2.30
2023-03-15T19:02:28.959Z,2.23
2023-03-15T19:05:34.727Z,2.23
2023-03-15T19:08:38.404Z,2.14
2023-03-15T19:11:44.018Z,2.15
2023-03-15T19:14:47.049Z,2.06
2023-03-15T19:17:52.423Z,2.07
2023-03-15T19:20:55.670Z,2.09
2023-03-15T19:23:59.176Z,2.15
2023-03-15T19:27:03.409Z,2.19
2023-03-15T19:30:09.014Z,2.30
2023-03-15T19:33:12.133Z,2.25
2023-03-15T19:36:15.464Z,2.23
2023-03-15T19:39:20.218Z,2.29
2023-03-15T19:42:23.983Z,2.29
2023-03-15T19:45:27.086Z,2.24
2023-03-15T19:48:30.326Z,2.32
2023-03-15T19:51:33.281Z,2.28
2023-03-15T19:54:36.282Z,2.23
2023-03-15T19:57:39.179Z,2.18
2023-03-15T20:00:42.418Z,2.09
2023-03-15T20:03:45.771Z,2.02
2023-03-15T20:06:49.380Z,2.02
2023-03-15T20:09:54.241Z,1.92
2023-03-15T20:13:17.148Z,1.87
2023-03-15T20:16:21.558Z,1.81
2023-03-15T20:19:26.391Z,1.62
2023-03-15T20:22:29.518Z,1.57
2023-03-15T20:25:32.804Z,1.52
2023-03-15T20:28:36.541Z,1.44
2023-03-15T20:31:40.378Z,1.32
2023-03-15T20:34:44.740Z,1.13
2023-03-15T20:37:48.530Z,0.92
2023-03-15T20:40:55.831Z,0.84
2023-03-15T20:43:59.298Z,0.82
2023-03-15T20:47:02.209Z,0.75
2023-03-15T20:50:07.554Z,0.66
2023-03-15T20:53:10.771Z,0.63
2023-03-15T20:56:14.015Z,0.54
2023-03-15T20:59:16.872Z,0.58
2023-03-15T21:02:20.170Z,0.67
2023-03-15T21:05:24.674Z,0.72
2023-03-15T21:08:27.975Z,0.68
2023-03-15T21:11:30.990Z,0.61
2023-03-15T21:14:34.352Z,0.68
2023-03-15T21:17:37.271Z,0.78
2023-03-15T21:20:40.610Z,0.81
2023-03-15T21:23:43.616Z,0.79
2023-03-15T21:26:48.821Z,0.84
2023-03-15T21:29:51.531Z,0.92
2023-03-15T21:32:54.433Z,0.97
2023-03-15T21:35:59.297Z,1.05
2023-03-15T21:39:02.089Z,1.12
2023-03-15T21:42:05.417Z,1.07
2023-03-15T21:45:09.292Z,1.11
2023-03-15T21:48:12.055Z,1.13
2023-03-15T21:51:15.081Z,1.10
2023-03-15T21:54:18.264Z,1.09
2023-03-15T21:57:25.074Z,1.10
2023-03-15T22:00:29.094Z,1.02
2023-03-15T22:03:32.541Z,1.00
2023-03-15T22:06:35.458Z,0.93
2023-03-15T22:09:38.475Z,0.79
2023-03-15T22:12:42.653Z,0.77
2023-03-15T22:15:45.400Z,0.76
2023-03-15T22:18:48.277Z,0.72
2023-03-15T22:21:51.378Z,0.67
2023-03-15T22:24:54.154Z,0.69
2023-03-15T22:27:56.999Z,0.55
2023-03-15T22:30:59.824Z,0.43
2023-03-15T22:34:04.758Z,0.42
2023-03-15T22:37:07.620Z,0.39
2023-03-15T22:40:14.450Z,0.33
2023-03-15T22:43:17.445Z,0.39
2023-03-15T22:46:20.208Z,0.45
2023-03-15T22:49:24.054Z,0.47
2023-03-15T22:52:30.028Z,0.44
2023-03-15T22:55:32.817Z,0.44
2023-03-15T22:58:35.535Z,0.44
2023-03-15T23:01:38.255Z,0.42
2023-03-15T23:04:41.382Z,0.45
2023-03-15T23:07:44.152Z,0.45
2023-03-15T23:10:46.799Z,0.48
2023-03-15T23:13:49.450Z,0.52
2023-03-15T23:16:52.526Z,0.50
2023-03-15T23:19:55.267Z,0.59
2023-03-15T23:22:58.297Z,0.66
2023-03-15T23:26:02.418Z,0.69
2023-03-15T23:29:10.887Z,0.69
2023-03-15T23:32:13.569Z,0.61
2023-03-15T23:35:16.408Z,0.58
2023-03-15T23:38:19.318Z,0.53
2023-03-15T23:41:21.960Z,0.48
2023-03-15T23:44:24.460Z,0.40
2023-03-15T23:47:27.119Z,0.35
2023-03-15T23:50:29.960Z,0.29
2023-03-15T23:53:32.776Z,0.27
2023-03-15T23:56:35.356Z,0.22
2023-03-15T23:59:38.217Z,0.12
